ideahacker.net alexa rank chart, ideahacker.net alexa rank daily changes

ideahacker.net alexa rank chart, ideahacker.net alexa rank daily changes

ideahacker.net
Actual rank:
119 317

RANK HISTORY

Date Rank Diff
2017/09/20 119 317 +5 203
2017/09/19 114 114 +1 909
2017/09/18 112 205 +2 840
2017/09/17 109 365 -1 591
2017/09/16 110 956 -4 237
2017/09/15 115 193 +3 259
2017/09/14 111 934 +1 203
2017/09/13 110 731 -572
2017/09/12 111 303 +2 731
2017/09/11 108 572 +488
2017/09/10 108 084 +2 639
2017/09/09 105 445 -1 189
2017/09/08 106 634 +1 566
2017/09/07 105 068 +414
2017/09/06 104 654 +840
2017/09/05 103 814 +3 737
2017/09/04 100 077 -606
2017/09/03 100 683 -363
2017/09/02 101 046 -2 189
2017/09/01 103 235 -1 421
2017/08/31 104 656 -4 617
2017/08/30 109 273 -1 984
2017/08/29 111 257 +2 522
2017/08/28 108 735 +1 591
2017/08/27 107 144 +1 524
2017/08/26 105 620 -481
2017/08/25 106 101 -1 515
2017/08/24 107 616 -3 747
2017/08/23 111 363 +2 181
2017/08/22 109 182 +1 433
2017/08/21 107 749 -158
2017/08/20 107 907 -3 711
2017/08/19 111 618 -38
2017/08/18 111 656 -4 327
2017/08/17 115 983 -114
2017/08/16 116 097 +2 003
2017/08/15 114 094 +997
2017/08/14 113 097 -356
2017/08/13 113 453 +3 426
2017/08/12 110 027 +340
2017/08/11 109 687 -1 990
2017/08/10 111 677 -5 286
2017/08/09 116 963 +1 266
2017/08/08 115 697 +332
2017/08/07 115 365 +2 729
2017/08/06 112 636 -2 301
2017/08/05 114 937 -4 538
2017/08/04 119 475 -2 839
2017/08/03 122 314 +2 291
2017/08/02 120 023 +722
2017/08/01 119 301 +1 457
2017/07/31 117 844 +8 254
2017/07/30 109 590 +1 559
2017/07/29 108 031 +1 703
2017/07/28 106 328 +813
2017/07/27 105 515 +170
2017/07/26 105 345 -737
2017/07/25 106 082 +2 522
2017/07/24 103 560 +3 893
2017/07/23 99 667

WIDGET FOR YOUR SITE

DOMAINS WITH THE NEAREST RANK

Domain Rank
audiokinetic.com 119 312
samandfuzzy.com 119 313
u-fukui.ac.jp 119 314
kodimania.com 119 315
skinon.ru 119 316
ideahacker.net 119 317
pythonworld.ru 119 318
flight1.com 119 319
saferwholesale.com 119 320
offside.com.az 119 321
xn----ctbholqj.xn--p1ai 119 322

DOMAINS WITH THE NEAREST RANK BY TLD .net

Domain Rank
x-lime.net 119 254
dengekiranking.net 119 255
uhaul.net 119 267
spicystory.net 119 300
elevationmap.net 119 303
ideahacker.net 119 317
hazlitt.net 119 326
distilled.net 119 331
azartclub.net 119 344
hot-games.net 119 357
pirojok.net 119 369